KBIX

Keesler AFB Airport

Biloxi, Mississippi, USA
METAR KBIX 250756Z AUTO 00000KT 10SM CLR 16/13 A3001 RMK AO2 SLP165 T01550130
Observed Flight Rules
Apr-25 @ 07:56 UTC (37 minutes ago) Visual Flight Rules
Visibility Clouds
10 miles
  • Clear skies
Temperatures Readings
Current 16°C / 61°F
Dewpoint 13°C / 55°F
Humidity 83%
Altimeter 30.01" Hg
Pressure 1016.5 hPa
Elevation 10
METAR KBIX 250756Z AUTO 00000KT 10SM CLR 16/13 A3001 RMK AO2 SLP165 T01550130
Observed Flight Rules
Apr-25 @ 07:56 UTC
(37 minutes ago)
VFR
Clouds
  • Clear skies
Temperature Dewpoint
16°C / 61°F 13°C / 55°F
Humidity Altimeter Pressure
83% 30.01" Hg 1016.5 hPa